sensor_id;sensor_type;location;lat;lon;timestamp;P1;durP1;ratioP1;P2;durP2;ratioP2
11082;SDS011;5595;50.186;8.468;2022-08-19T00:01:57;15.38;;;12.40;;
11082;SDS011;5595;50.186;8.468;2022-08-19T00:04:25;14.95;;;11.70;;
11082;SDS011;5595;50.186;8.468;2022-08-19T00:06:54;13.77;;;11.93;;
11082;SDS011;5595;50.186;8.468;2022-08-19T00:09:23;14.52;;;13.02;;
11082;SDS011;5595;50.186;8.468;2022-08-19T00:11:51;14.00;;;12.48;;
11082;SDS011;5595;50.186;8.468;2022-08-19T00:14:23;17.00;;;11.93;;
11082;SDS011;5595;50.186;8.468;2022-08-19T00:16:50;13.40;;;12.00;;
11082;SDS011;5595;50.186;8.468;2022-08-19T00:19:20;14.70;;;12.88;;
11082;SDS011;5595;50.186;8.468;2022-08-19T00:21:47;13.85;;;11.57;;
11082;SDS011;5595;50.186;8.468;2022-08-19T00:24:14;12.23;;;11.02;;
11082;SDS011;5595;50.186;8.468;2022-08-19T00:26:43;14.45;;;12.13;;
11082;SDS011;5595;50.186;8.468;2022-08-19T00:29:11;13.35;;;11.50;;
11082;SDS011;5595;50.186;8.468;2022-08-19T00:31:39;15.07;;;12.50;;
11082;SDS011;5595;50.186;8.468;2022-08-19T00:34:08;15.30;;;11.35;;
11082;SDS011;5595;50.186;8.468;2022-08-19T00:36:35;13.93;;;11.70;;
11082;SDS011;5595;50.186;8.468;2022-08-19T00:39:04;14.70;;;10.90;;
11082;SDS011;5595;50.186;8.468;2022-08-19T00:41:31;15.65;;;11.02;;
11082;SDS011;5595;50.186;8.468;2022-08-19T00:44:02;12.05;;;10.85;;
11082;SDS011;5595;50.186;8.468;2022-08-19T00:46:36;12.32;;;9.88;;
11082;SDS011;5595;50.186;8.468;2022-08-19T00:49:06;11.50;;;10.40;;
11082;SDS011;5595;50.186;8.468;2022-08-19T00:51:39;12.52;;;10.95;;
11082;SDS011;5595;50.186;8.468;2022-08-19T00:54:07;12.07;;;10.88;;
11082;SDS011;5595;50.186;8.468;2022-08-19T00:56:34;13.63;;;11.07;;
11082;SDS011;5595;50.186;8.468;2022-08-19T00:59:03;12.82;;;11.40;;
11082;SDS011;5595;50.186;8.468;2022-08-19T01:01:34;14.82;;;10.98;;
11082;SDS011;5595;50.186;8.468;2022-08-19T01:04:02;11.55;;;10.45;;
11082;SDS011;5595;50.186;8.468;2022-08-19T01:06:29;13.80;;;10.52;;
11082;SDS011;5595;50.186;8.468;2022-08-19T01:08:57;15.52;;;11.48;;
11082;SDS011;5595;50.186;8.468;2022-08-19T01:11:28;11.68;;;10.07;;
11082;SDS011;5595;50.186;8.468;2022-08-19T01:14:00;14.57;;;11.80;;
11082;SDS011;5595;50.186;8.468;2022-08-19T01:16:29;11.52;;;8.45;;
11082;SDS011;5595;50.186;8.468;2022-08-19T01:18:57;13.23;;;11.82;;
11082;SDS011;5595;50.186;8.468;2022-08-19T01:21:25;12.18;;;10.82;;
11082;SDS011;5595;50.186;8.468;2022-08-19T01:23:58;14.30;;;11.70;;
11082;SDS011;5595;50.186;8.468;2022-08-19T01:26:25;12.38;;;11.05;;
11082;SDS011;5595;50.186;8.468;2022-08-19T01:28:54;12.60;;;11.27;;
11082;SDS011;5595;50.186;8.468;2022-08-19T01:31:23;12.77;;;11.43;;
11082;SDS011;5595;50.186;8.468;2022-08-19T01:33:51;12.00;;;10.80;;
11082;SDS011;5595;50.186;8.468;2022-08-19T01:36:21;11.80;;;10.70;;
11082;SDS011;5595;50.186;8.468;2022-08-19T01:38:50;13.25;;;11.30;;
11082;SDS011;5595;50.186;8.468;2022-08-19T01:41:19;12.95;;;11.50;;
11082;SDS011;5595;50.186;8.468;2022-08-19T01:43:48;12.02;;;10.43;;
11082;SDS011;5595;50.186;8.468;2022-08-19T01:46:15;13.60;;;11.77;;
11082;SDS011;5595;50.186;8.468;2022-08-19T01:48:42;13.57;;;10.90;;
11082;SDS011;5595;50.186;8.468;2022-08-19T01:51:10;11.60;;;10.32;;
11082;SDS011;5595;50.186;8.468;2022-08-19T01:53:38;12.98;;;11.00;;
11082;SDS011;5595;50.186;8.468;2022-08-19T01:56:06;12.40;;;10.20;;
11082;SDS011;5595;50.186;8.468;2022-08-19T01:58:36;14.70;;;10.60;;
11082;SDS011;5595;50.186;8.468;2022-08-19T02:01:07;12.65;;;10.38;;
11082;SDS011;5595;50.186;8.468;2022-08-19T02:03:34;12.15;;;10.35;;
11082;SDS011;5595;50.186;8.468;2022-08-19T02:06:02;11.93;;;10.32;;
11082;SDS011;5595;50.186;8.468;2022-08-19T02:08:30;12.48;;;11.18;;
11082;SDS011;5595;50.186;8.468;2022-08-19T02:10:59;12.00;;;10.80;;
11082;SDS011;5595;50.186;8.468;2022-08-19T02:13:26;10.25;;;9.23;;
11082;SDS011;5595;50.186;8.468;2022-08-19T02:15:55;12.10;;;10.80;;
11082;SDS011;5595;50.186;8.468;2022-08-19T02:18:23;11.50;;;10.30;;
11082;SDS011;5595;50.186;8.468;2022-08-19T02:20:51;11.45;;;9.98;;
11082;SDS011;5595;50.186;8.468;2022-08-19T02:23:18;13.23;;;9.95;;
11082;SDS011;5595;50.186;8.468;2022-08-19T02:25:47;11.68;;;10.20;;
11082;SDS011;5595;50.186;8.468;2022-08-19T02:28:14;11.75;;;10.18;;
11082;SDS011;5595;50.186;8.468;2022-08-19T02:30:41;10.85;;;9.52;;
11082;SDS011;5595;50.186;8.468;2022-08-19T02:33:10;12.25;;;9.68;;
11082;SDS011;5595;50.186;8.468;2022-08-19T02:35:37;14.23;;;9.70;;
11082;SDS011;5595;50.186;8.468;2022-08-19T02:38:07;11.27;;;9.43;;
11082;SDS011;5595;50.186;8.468;2022-08-19T02:40:54;12.52;;;10.02;;
11082;SDS011;5595;50.186;8.468;2022-08-19T02:43:22;12.52;;;9.73;;
11082;SDS011;5595;50.186;8.468;2022-08-19T02:45:49;9.85;;;8.80;;
11082;SDS011;5595;50.186;8.468;2022-08-19T02:48:18;11.93;;;9.38;;
11082;SDS011;5595;50.186;8.468;2022-08-19T02:50:46;12.40;;;9.52;;
11082;SDS011;5595;50.186;8.468;2022-08-19T02:53:17;10.68;;;9.15;;
11082;SDS011;5595;50.186;8.468;2022-08-19T02:55:45;11.63;;;8.63;;
11082;SDS011;5595;50.186;8.468;2022-08-19T02:58:12;10.15;;;8.77;;
11082;SDS011;5595;50.186;8.468;2022-08-19T03:00:44;11.75;;;9.20;;
11082;SDS011;5595;50.186;8.468;2022-08-19T03:03:12;10.10;;;8.95;;
11082;SDS011;5595;50.186;8.468;2022-08-19T03:05:41;11.68;;;8.98;;
11082;SDS011;5595;50.186;8.468;2022-08-19T03:08:08;10.82;;;9.00;;
11082;SDS011;5595;50.186;8.468;2022-08-19T03:10:41;9.85;;;8.77;;
11082;SDS011;5595;50.186;8.468;2022-08-19T03:13:10;11.93;;;9.45;;
11082;SDS011;5595;50.186;8.468;2022-08-19T03:15:41;13.88;;;9.40;;
11082;SDS011;5595;50.186;8.468;2022-08-19T03:18:08;9.68;;;8.55;;
11082;SDS011;5595;50.186;8.468;2022-08-19T03:20:41;9.73;;;8.70;;
11082;SDS011;5595;50.186;8.468;2022-08-19T03:23:08;10.48;;;9.00;;
11082;SDS011;5595;50.186;8.468;2022-08-19T03:25:36;10.40;;;8.52;;
11082;SDS011;5595;50.186;8.468;2022-08-19T03:28:05;11.32;;;8.45;;
11082;SDS011;5595;50.186;8.468;2022-08-19T03:30:32;10.90;;;8.40;;
11082;SDS011;5595;50.186;8.468;2022-08-19T03:32:59;9.02;;;8.13;;
11082;SDS011;5595;50.186;8.468;2022-08-19T03:35:27;9.40;;;8.15;;
11082;SDS011;5595;50.186;8.468;2022-08-19T03:37:55;8.80;;;7.93;;
11082;SDS011;5595;50.186;8.468;2022-08-19T03:40:22;9.48;;;7.10;;
11082;SDS011;5595;50.186;8.468;2022-08-19T03:42:49;10.55;;;7.20;;
11082;SDS011;5595;50.186;8.468;2022-08-19T03:45:16;8.60;;;7.50;;
11082;SDS011;5595;50.186;8.468;2022-08-19T03:47:43;8.45;;;7.00;;
11082;SDS011;5595;50.186;8.468;2022-08-19T03:50:10;7.40;;;6.47;;
11082;SDS011;5595;50.186;8.468;2022-08-19T03:52:37;8.90;;;6.82;;
11082;SDS011;5595;50.186;8.468;2022-08-19T03:55:06;7.57;;;6.65;;
11082;SDS011;5595;50.186;8.468;2022-08-19T03:57:33;6.95;;;6.25;;
11082;SDS011;5595;50.186;8.468;2022-08-19T04:00:00;7.90;;;6.75;;
11082;SDS011;5595;50.186;8.468;2022-08-19T04:02:31;8.00;;;6.97;;
11082;SDS011;5595;50.186;8.468;2022-08-19T04:05:01;8.90;;;7.35;;
11082;SDS011;5595;50.186;8.468;2022-08-19T04:07:28;8.68;;;5.93;;
11082;SDS011;5595;50.186;8.468;2022-08-19T04:09:58;7.60;;;6.75;;
11082;SDS011;5595;50.186;8.468;2022-08-19T04:12:27;11.50;;;6.80;;
11082;SDS011;5595;50.186;8.468;2022-08-19T04:14:58;7.15;;;6.32;;
11082;SDS011;5595;50.186;8.468;2022-08-19T04:17:25;7.25;;;6.25;;
11082;SDS011;5595;50.186;8.468;2022-08-19T04:19:52;7.82;;;6.95;;
11082;SDS011;5595;50.186;8.468;2022-08-19T04:22:19;8.45;;;6.13;;
11082;SDS011;5595;50.186;8.468;2022-08-19T04:24:46;6.20;;;5.63;;
11082;SDS011;5595;50.186;8.468;2022-08-19T04:27:13;9.32;;;6.13;;
11082;SDS011;5595;50.186;8.468;2022-08-19T04:29:42;10.30;;;6.20;;
11082;SDS011;5595;50.186;8.468;2022-08-19T04:32:09;8.98;;;5.95;;
11082;SDS011;5595;50.186;8.468;2022-08-19T04:34:36;7.78;;;4.90;;
11082;SDS011;5595;50.186;8.468;2022-08-19T04:37:04;7.18;;;5.40;;
11082;SDS011;5595;50.186;8.468;2022-08-19T04:39:37;6.68;;;5.95;;
11082;SDS011;5595;50.186;8.468;2022-08-19T04:42:22;8.68;;;6.00;;
11082;SDS011;5595;50.186;8.468;2022-08-19T04:45:12;6.45;;;5.88;;
11082;SDS011;5595;50.186;8.468;2022-08-19T04:47:41;7.32;;;5.88;;
11082;SDS011;5595;50.186;8.468;2022-08-19T04:50:09;6.40;;;5.30;;
11082;SDS011;5595;50.186;8.468;2022-08-19T04:52:37;6.18;;;5.22;;
11082;SDS011;5595;50.186;8.468;2022-08-19T04:55:04;7.47;;;5.22;;
11082;SDS011;5595;50.186;8.468;2022-08-19T04:57:32;4.93;;;4.53;;
11082;SDS011;5595;50.186;8.468;2022-08-19T05:00:06;5.53;;;4.97;;
11082;SDS011;5595;50.186;8.468;2022-08-19T05:02:37;6.63;;;4.88;;
11082;SDS011;5595;50.186;8.468;2022-08-19T05:05:04;6.05;;;4.93;;
11082;SDS011;5595;50.186;8.468;2022-08-19T05:07:31;5.40;;;4.90;;
11082;SDS011;5595;50.186;8.468;2022-08-19T05:09:58;7.30;;;4.57;;
11082;SDS011;5595;50.186;8.468;2022-08-19T05:12:28;8.52;;;5.25;;
11082;SDS011;5595;50.186;8.468;2022-08-19T05:14:55;5.38;;;4.82;;
11082;SDS011;5595;50.186;8.468;2022-08-19T05:17:24;5.88;;;4.57;;
11082;SDS011;5595;50.186;8.468;2022-08-19T05:19:52;5.32;;;4.50;;
11082;SDS011;5595;50.186;8.468;2022-08-19T05:22:36;6.78;;;5.88;;
11082;SDS011;5595;50.186;8.468;2022-08-19T05:25:05;8.52;;;5.20;;
11082;SDS011;5595;50.186;8.468;2022-08-19T05:27:33;8.32;;;5.80;;
11082;SDS011;5595;50.186;8.468;2022-08-19T05:30:00;7.70;;;5.50;;
11082;SDS011;5595;50.186;8.468;2022-08-19T05:32:29;6.25;;;4.95;;
11082;SDS011;5595;50.186;8.468;2022-08-19T05:34:56;9.77;;;5.47;;
11082;SDS011;5595;50.186;8.468;2022-08-19T05:37:23;5.65;;;4.90;;
11082;SDS011;5595;50.186;8.468;2022-08-19T05:39:51;6.25;;;5.28;;
11082;SDS011;5595;50.186;8.468;2022-08-19T05:42:19;6.38;;;5.13;;
11082;SDS011;5595;50.186;8.468;2022-08-19T05:44:47;6.45;;;4.45;;
11082;SDS011;5595;50.186;8.468;2022-08-19T05:47:15;8.20;;;4.97;;
11082;SDS011;5595;50.186;8.468;2022-08-19T05:49:45;6.07;;;4.50;;
11082;SDS011;5595;50.186;8.468;2022-08-19T05:52:15;5.35;;;4.63;;
11082;SDS011;5595;50.186;8.468;2022-08-19T05:54:42;4.63;;;4.20;;
11082;SDS011;5595;50.186;8.468;2022-08-19T05:57:12;6.78;;;3.92;;
11082;SDS011;5595;50.186;8.468;2022-08-19T05:59:40;3.78;;;3.33;;
11082;SDS011;5595;50.186;8.468;2022-08-19T06:02:07;4.07;;;3.55;;
11082;SDS011;5595;50.186;8.468;2022-08-19T06:04:34;3.67;;;2.97;;
11082;SDS011;5595;50.186;8.468;2022-08-19T06:07:02;4.40;;;3.40;;
11082;SDS011;5595;50.186;8.468;2022-08-19T06:09:29;5.40;;;3.95;;
11082;SDS011;5595;50.186;8.468;2022-08-19T06:11:57;4.07;;;3.47;;
11082;SDS011;5595;50.186;8.468;2022-08-19T06:14:26;4.70;;;3.00;;
11082;SDS011;5595;50.186;8.468;2022-08-19T06:16:54;3.42;;;3.13;;
11082;SDS011;5595;50.186;8.468;2022-08-19T06:19:22;4.53;;;3.67;;
11082;SDS011;5595;50.186;8.468;2022-08-19T06:21:50;7.90;;;3.92;;
11082;SDS011;5595;50.186;8.468;2022-08-19T06:24:23;3.97;;;3.50;;
11082;SDS011;5595;50.186;8.468;2022-08-19T06:26:52;4.35;;;3.92;;
11082;SDS011;5595;50.186;8.468;2022-08-19T06:29:22;4.68;;;3.67;;
11082;SDS011;5595;50.186;8.468;2022-08-19T06:31:53;4.63;;;4.18;;
11082;SDS011;5595;50.186;8.468;2022-08-19T06:34:21;5.90;;;4.00;;
11082;SDS011;5595;50.186;8.468;2022-08-19T06:36:50;5.10;;;3.65;;
11082;SDS011;5595;50.186;8.468;2022-08-19T06:39:21;3.85;;;3.50;;
11082;SDS011;5595;50.186;8.468;2022-08-19T06:41:52;4.35;;;3.60;;
11082;SDS011;5595;50.186;8.468;2022-08-19T06:44:21;4.90;;;4.22;;
11082;SDS011;5595;50.186;8.468;2022-08-19T06:46:51;5.22;;;3.55;;
11082;SDS011;5595;50.186;8.468;2022-08-19T06:49:18;6.15;;;3.38;;
11082;SDS011;5595;50.186;8.468;2022-08-19T06:51:45;7.15;;;3.47;;
11082;SDS011;5595;50.186;8.468;2022-08-19T06:54:14;4.55;;;3.70;;
11082;SDS011;5595;50.186;8.468;2022-08-19T06:56:43;5.50;;;3.42;;
11082;SDS011;5595;50.186;8.468;2022-08-19T06:59:11;4.47;;;3.40;;
11082;SDS011;5595;50.186;8.468;2022-08-19T07:01:39;6.53;;;3.88;;
11082;SDS011;5595;50.186;8.468;2022-08-19T07:04:09;4.53;;;4.10;;
11082;SDS011;5595;50.186;8.468;2022-08-19T07:06:36;4.70;;;3.50;;
11082;SDS011;5595;50.186;8.468;2022-08-19T07:09:03;5.50;;;3.33;;
11082;SDS011;5595;50.186;8.468;2022-08-19T07:11:31;4.80;;;3.65;;
11082;SDS011;5595;50.186;8.468;2022-08-19T07:14:00;4.13;;;3.72;;
11082;SDS011;5595;50.186;8.468;2022-08-19T07:16:28;5.75;;;4.50;;
11082;SDS011;5595;50.186;8.468;2022-08-19T07:18:55;5.80;;;4.10;;
11082;SDS011;5595;50.186;8.468;2022-08-19T07:21:23;4.65;;;4.25;;
11082;SDS011;5595;50.186;8.468;2022-08-19T07:23:52;4.45;;;4.05;;
11082;SDS011;5595;50.186;8.468;2022-08-19T07:26:24;6.78;;;4.90;;
11082;SDS011;5595;50.186;8.468;2022-08-19T07:28:52;7.88;;;6.00;;
11082;SDS011;5595;50.186;8.468;2022-08-19T07:31:22;5.97;;;5.38;;
11082;SDS011;5595;50.186;8.468;2022-08-19T07:33:51;7.55;;;6.65;;
11082;SDS011;5595;50.186;8.468;2022-08-19T07:36:21;5.32;;;4.90;;
11082;SDS011;5595;50.186;8.468;2022-08-19T07:38:50;6.07;;;5.57;;
11082;SDS011;5595;50.186;8.468;2022-08-19T07:41:20;6.95;;;5.93;;
11082;SDS011;5595;50.186;8.468;2022-08-19T07:43:49;6.47;;;5.22;;
11082;SDS011;5595;50.186;8.468;2022-08-19T07:46:17;7.75;;;6.32;;
11082;SDS011;5595;50.186;8.468;2022-08-19T07:48:48;6.30;;;5.70;;
11082;SDS011;5595;50.186;8.468;2022-08-19T07:51:17;7.90;;;6.15;;
11082;SDS011;5595;50.186;8.468;2022-08-19T07:53:46;7.82;;;5.95;;
11082;SDS011;5595;50.186;8.468;2022-08-19T07:56:16;7.25;;;5.63;;
11082;SDS011;5595;50.186;8.468;2022-08-19T07:58:47;7.45;;;5.75;;
11082;SDS011;5595;50.186;8.468;2022-08-19T08:01:17;9.55;;;7.20;;
11082;SDS011;5595;50.186;8.468;2022-08-19T08:03:47;8.70;;;6.38;;
11082;SDS011;5595;50.186;8.468;2022-08-19T08:06:34;10.13;;;6.72;;
11082;SDS011;5595;50.186;8.468;2022-08-19T08:09:19;8.15;;;7.35;;
11082;SDS011;5595;50.186;8.468;2022-08-19T08:11:51;8.90;;;8.00;;
11082;SDS011;5595;50.186;8.468;2022-08-19T08:14:21;11.90;;;8.90;;
11082;SDS011;5595;50.186;8.468;2022-08-19T08:16:49;10.45;;;8.93;;
11082;SDS011;5595;50.186;8.468;2022-08-19T08:19:18;10.45;;;8.88;;
11082;SDS011;5595;50.186;8.468;2022-08-19T08:21:47;10.15;;;9.10;;
11082;SDS011;5595;50.186;8.468;2022-08-19T08:24:15;12.75;;;9.93;;
11082;SDS011;5595;50.186;8.468;2022-08-19T08:26:46;10.13;;;8.80;;
11082;SDS011;5595;50.186;8.468;2022-08-19T08:29:13;11.60;;;10.25;;
11082;SDS011;5595;50.186;8.468;2022-08-19T08:31:42;11.38;;;10.27;;
11082;SDS011;5595;50.186;8.468;2022-08-19T08:34:10;13.43;;;11.02;;
11082;SDS011;5595;50.186;8.468;2022-08-19T08:36:40;12.90;;;10.43;;
11082;SDS011;5595;50.186;8.468;2022-08-19T08:39:11;13.15;;;10.55;;
11082;SDS011;5595;50.186;8.468;2022-08-19T08:41:42;13.80;;;12.32;;
11082;SDS011;5595;50.186;8.468;2022-08-19T08:44:20;14.30;;;12.93;;
11082;SDS011;5595;50.186;8.468;2022-08-19T08:46:50;15.18;;;11.85;;
11082;SDS011;5595;50.186;8.468;2022-08-19T08:49:26;15.95;;;11.73;;
11082;SDS011;5595;50.186;8.468;2022-08-19T08:51:59;12.70;;;11.35;;
11082;SDS011;5595;50.186;8.468;2022-08-19T08:54:30;16.80;;;14.10;;
11082;SDS011;5595;50.186;8.468;2022-08-19T08:57:02;14.93;;;13.35;;
11082;SDS011;5595;50.186;8.468;2022-08-19T08:59:34;15.32;;;12.40;;
11082;SDS011;5595;50.186;8.468;2022-08-19T09:02:06;15.90;;;14.30;;
11082;SDS011;5595;50.186;8.468;2022-08-19T09:04:34;14.98;;;12.15;;
11082;SDS011;5595;50.186;8.468;2022-08-19T09:07:08;14.00;;;11.27;;
11082;SDS011;5595;50.186;8.468;2022-08-19T09:09:47;12.40;;;11.10;;
11082;SDS011;5595;50.186;8.468;2022-08-19T09:12:17;14.57;;;11.85;;
11082;SDS011;5595;50.186;8.468;2022-08-19T09:14:52;13.95;;;12.55;;
11082;SDS011;5595;50.186;8.468;2022-08-19T09:17:24;13.05;;;11.57;;
11082;SDS011;5595;50.186;8.468;2022-08-19T09:19:56;14.23;;;12.73;;
11082;SDS011;5595;50.186;8.468;2022-08-19T09:22:27;15.65;;;12.32;;
11082;SDS011;5595;50.186;8.468;2022-08-19T09:24:54;13.23;;;11.93;;
11082;SDS011;5595;50.186;8.468;2022-08-19T09:27:22;11.45;;;10.35;;
11082;SDS011;5595;50.186;8.468;2022-08-19T09:29:50;11.30;;;9.57;;
11082;SDS011;5595;50.186;8.468;2022-08-19T09:32:17;13.10;;;11.80;;
11082;SDS011;5595;50.186;8.468;2022-08-19T09:34:44;13.05;;;11.65;;
11082;SDS011;5595;50.186;8.468;2022-08-19T09:37:11;13.50;;;11.02;;
11082;SDS011;5595;50.186;8.468;2022-08-19T09:39:40;13.65;;;10.25;;
11082;SDS011;5595;50.186;8.468;2022-08-19T09:42:07;12.35;;;10.25;;
11082;SDS011;5595;50.186;8.468;2022-08-19T09:44:40;10.75;;;9.65;;
11082;SDS011;5595;50.186;8.468;2022-08-19T09:47:08;10.40;;;9.40;;
11082;SDS011;5595;50.186;8.468;2022-08-19T09:49:36;13.15;;;11.95;;
11082;SDS011;5595;50.186;8.468;2022-08-19T09:52:04;11.43;;;10.27;;
11082;SDS011;5595;50.186;8.468;2022-08-19T09:54:32;9.88;;;8.95;;
11082;SDS011;5595;50.186;8.468;2022-08-19T09:57:01;10.70;;;9.60;;
11082;SDS011;5595;50.186;8.468;2022-08-19T09:59:28;9.50;;;8.70;;
11082;SDS011;5595;50.186;8.468;2022-08-19T10:01:56;12.43;;;11.13;;
11082;SDS011;5595;50.186;8.468;2022-08-19T10:04:23;12.57;;;11.27;;
11082;SDS011;5595;50.186;8.468;2022-08-19T10:07:20;12.40;;;10.13;;
11082;SDS011;5595;50.186;8.468;2022-08-19T10:09:47;15.48;;;10.55;;
11082;SDS011;5595;50.186;8.468;2022-08-19T10:12:15;11.90;;;10.70;;
11082;SDS011;5595;50.186;8.468;2022-08-19T10:14:42;11.75;;;10.18;;
11082;SDS011;5595;50.186;8.468;2022-08-19T10:17:10;12.18;;;10.90;;
11082;SDS011;5595;50.186;8.468;2022-08-19T10:19:37;13.35;;;11.98;;
11082;SDS011;5595;50.186;8.468;2022-08-19T10:22:05;12.45;;;11.15;;
11082;SDS011;5595;50.186;8.468;2022-08-19T10:24:32;11.75;;;10.65;;
11082;SDS011;5595;50.186;8.468;2022-08-19T10:27:00;13.05;;;11.52;;
11082;SDS011;5595;50.186;8.468;2022-08-19T10:29:30;11.88;;;10.73;;
11082;SDS011;5595;50.186;8.468;2022-08-19T10:31:59;12.50;;;11.30;;
11082;SDS011;5595;50.186;8.468;2022-08-19T10:34:26;15.55;;;12.80;;
11082;SDS011;5595;50.186;8.468;2022-08-19T10:36:54;15.02;;;13.63;;
11082;SDS011;5595;50.186;8.468;2022-08-19T10:39:22;13.88;;;12.43;;
11082;SDS011;5595;50.186;8.468;2022-08-19T10:41:49;13.43;;;12.07;;
11082;SDS011;5595;50.186;8.468;2022-08-19T10:44:16;13.30;;;11.38;;
11082;SDS011;5595;50.186;8.468;2022-08-19T10:46:49;13.18;;;11.80;;
11082;SDS011;5595;50.186;8.468;2022-08-19T10:49:17;14.50;;;13.02;;
11082;SDS011;5595;50.186;8.468;2022-08-19T10:51:44;13.93;;;12.27;;
11082;SDS011;5595;50.186;8.468;2022-08-19T10:54:29;12.65;;;11.55;;
11082;SDS011;5595;50.186;8.468;2022-08-19T10:57:09;13.88;;;12.57;;
11082;SDS011;5595;50.186;8.468;2022-08-19T10:59:37;12.95;;;11.65;;
11082;SDS011;5595;50.186;8.468;2022-08-19T11:02:07;11.63;;;10.32;;
11082;SDS011;5595;50.186;8.468;2022-08-19T11:04:37;14.43;;;10.73;;
11082;SDS011;5595;50.186;8.468;2022-08-19T11:07:04;10.75;;;9.65;;
11082;SDS011;5595;50.186;8.468;2022-08-19T11:09:36;9.65;;;8.65;;
11082;SDS011;5595;50.186;8.468;2022-08-19T11:12:05;9.85;;;8.93;;
11082;SDS011;5595;50.186;8.468;2022-08-19T11:14:33;10.75;;;9.75;;
11082;SDS011;5595;50.186;8.468;2022-08-19T11:17:00;10.52;;;9.52;;
11082;SDS011;5595;50.186;8.468;2022-08-19T11:19:30;10.68;;;8.85;;
11082;SDS011;5595;50.186;8.468;2022-08-19T11:21:57;10.05;;;9.05;;
11082;SDS011;5595;50.186;8.468;2022-08-19T11:24:28;10.70;;;9.70;;
11082;SDS011;5595;50.186;8.468;2022-08-19T11:27:00;9.68;;;8.80;;
11082;SDS011;5595;50.186;8.468;2022-08-19T11:29:29;8.98;;;8.18;;
11082;SDS011;5595;50.186;8.468;2022-08-19T11:31:57;8.20;;;7.40;;
11082;SDS011;5595;50.186;8.468;2022-08-19T11:34:25;10.35;;;7.82;;
11082;SDS011;5595;50.186;8.468;2022-08-19T11:36:55;8.73;;;7.90;;
11082;SDS011;5595;50.186;8.468;2022-08-19T11:39:24;8.45;;;7.57;;
11082;SDS011;5595;50.186;8.468;2022-08-19T11:41:52;8.18;;;7.38;;
11082;SDS011;5595;50.186;8.468;2022-08-19T11:44:19;7.68;;;6.93;;
11082;SDS011;5595;50.186;8.468;2022-08-19T11:46:46;7.05;;;6.45;;
11082;SDS011;5595;50.186;8.468;2022-08-19T11:49:16;7.00;;;6.40;;
11082;SDS011;5595;50.186;8.468;2022-08-19T11:51:45;6.10;;;5.55;;
11082;SDS011;5595;50.186;8.468;2022-08-19T11:54:16;7.13;;;6.53;;
11082;SDS011;5595;50.186;8.468;2022-08-19T11:56:43;5.68;;;5.07;;
11082;SDS011;5595;50.186;8.468;2022-08-19T11:59:11;6.45;;;5.22;;
11082;SDS011;5595;50.186;8.468;2022-08-19T12:01:38;9.48;;;5.93;;
11082;SDS011;5595;50.186;8.468;2022-08-19T12:04:07;5.03;;;4.55;;
11082;SDS011;5595;50.186;8.468;2022-08-19T12:06:36;5.90;;;4.70;;
11082;SDS011;5595;50.186;8.468;2022-08-19T12:09:06;5.32;;;4.90;;
11082;SDS011;5595;50.186;8.468;2022-08-19T12:11:35;5.80;;;5.20;;
11082;SDS011;5595;50.186;8.468;2022-08-19T12:14:03;6.07;;;5.43;;
11082;SDS011;5595;50.186;8.468;2022-08-19T12:16:30;5.53;;;4.85;;
11082;SDS011;5595;50.186;8.468;2022-08-19T12:18:58;4.28;;;3.88;;
11082;SDS011;5595;50.186;8.468;2022-08-19T12:21:29;4.20;;;3.78;;
11082;SDS011;5595;50.186;8.468;2022-08-19T12:23:57;5.47;;;5.07;;
11082;SDS011;5595;50.186;8.468;2022-08-19T12:26:26;5.38;;;4.07;;
11082;SDS011;5595;50.186;8.468;2022-08-19T12:28:55;4.90;;;4.50;;
11082;SDS011;5595;50.186;8.468;2022-08-19T12:31:24;5.30;;;4.10;;
11082;SDS011;5595;50.186;8.468;2022-08-19T12:33:51;5.25;;;4.18;;
11082;SDS011;5595;50.186;8.468;2022-08-19T12:36:18;5.50;;;4.15;;
11082;SDS011;5595;50.186;8.468;2022-08-19T12:38:47;6.68;;;3.88;;
11082;SDS011;5595;50.186;8.468;2022-08-19T12:41:14;4.18;;;3.78;;
11082;SDS011;5595;50.186;8.468;2022-08-19T12:43:43;3.90;;;3.60;;
11082;SDS011;5595;50.186;8.468;2022-08-19T12:46:12;3.90;;;3.60;;
11082;SDS011;5595;50.186;8.468;2022-08-19T12:48:39;5.40;;;3.22;;
11082;SDS011;5595;50.186;8.468;2022-08-19T12:51:08;4.18;;;3.10;;
11082;SDS011;5595;50.186;8.468;2022-08-19T12:53:36;6.03;;;3.40;;
11082;SDS011;5595;50.186;8.468;2022-08-19T12:56:03;3.88;;;3.17;;
11082;SDS011;5595;50.186;8.468;2022-08-19T12:58:32;3.53;;;3.22;;
11082;SDS011;5595;50.186;8.468;2022-08-19T13:00:59;4.47;;;3.40;;
11082;SDS011;5595;50.186;8.468;2022-08-19T13:03:33;8.63;;;3.28;;
11082;SDS011;5595;50.186;8.468;2022-08-19T13:06:00;4.25;;;3.17;;
11082;SDS011;5595;50.186;8.468;2022-08-19T13:08:27;3.97;;;3.20;;
11082;SDS011;5595;50.186;8.468;2022-08-19T13:10:54;3.33;;;3.03;;
11082;SDS011;5595;50.186;8.468;2022-08-19T13:13:20;4.45;;;2.47;;
11082;SDS011;5595;50.186;8.468;2022-08-19T13:15:47;6.55;;;3.30;;
11082;SDS011;5595;50.186;8.468;2022-08-19T13:18:14;4.28;;;2.90;;
11082;SDS011;5595;50.186;8.468;2022-08-19T13:20:43;3.42;;;2.67;;
11082;SDS011;5595;50.186;8.468;2022-08-19T13:23:10;3.72;;;3.00;;
11082;SDS011;5595;50.186;8.468;2022-08-19T13:25:37;3.83;;;3.22;;
11082;SDS011;5595;50.186;8.468;2022-08-19T13:28:04;3.38;;;3.17;;
11082;SDS011;5595;50.186;8.468;2022-08-19T13:30:32;4.63;;;3.08;;
11082;SDS011;5595;50.186;8.468;2022-08-19T13:33:16;3.35;;;3.08;;
11082;SDS011;5595;50.186;8.468;2022-08-19T13:35:48;5.07;;;3.10;;
11082;SDS011;5595;50.186;8.468;2022-08-19T13:38:18;4.45;;;2.85;;
11082;SDS011;5595;50.186;8.468;2022-08-19T13:40:46;5.72;;;2.53;;
11082;SDS011;5595;50.186;8.468;2022-08-19T13:43:15;3.78;;;2.75;;
11082;SDS011;5595;50.186;8.468;2022-08-19T13:45:42;2.92;;;2.70;;
11082;SDS011;5595;50.186;8.468;2022-08-19T13:48:09;3.65;;;2.83;;
11082;SDS011;5595;50.186;8.468;2022-08-19T13:50:39;2.90;;;2.70;;
11082;SDS011;5595;50.186;8.468;2022-08-19T13:53:09;3.35;;;2.70;;
11082;SDS011;5595;50.186;8.468;2022-08-19T13:55:37;4.57;;;3.10;;
11082;SDS011;5595;50.186;8.468;2022-08-19T13:58:04;2.90;;;2.67;;
11082;SDS011;5595;50.186;8.468;2022-08-19T14:00:33;3.72;;;2.45;;
11082;SDS011;5595;50.186;8.468;2022-08-19T14:03:02;3.00;;;2.80;;
11082;SDS011;5595;50.186;8.468;2022-08-19T14:05:29;3.90;;;3.13;;
11082;SDS011;5595;50.186;8.468;2022-08-19T14:07:57;3.40;;;3.20;;
11082;SDS011;5595;50.186;8.468;2022-08-19T14:10:26;3.30;;;3.00;;
11082;SDS011;5595;50.186;8.468;2022-08-19T14:12:59;2.90;;;2.70;;
11082;SDS011;5595;50.186;8.468;2022-08-19T14:15:28;2.92;;;2.72;;
11082;SDS011;5595;50.186;8.468;2022-08-19T14:17:56;2.75;;;2.53;;
11082;SDS011;5595;50.186;8.468;2022-08-19T14:20:23;5.18;;;2.75;;
11082;SDS011;5595;50.186;8.468;2022-08-19T14:22:50;2.72;;;2.17;;
11082;SDS011;5595;50.186;8.468;2022-08-19T14:25:18;5.93;;;3.47;;
11082;SDS011;5595;50.186;8.468;2022-08-19T14:27:50;3.13;;;2.92;;
11082;SDS011;5595;50.186;8.468;2022-08-19T14:30:18;4.80;;;2.30;;
11082;SDS011;5595;50.186;8.468;2022-08-19T14:32:47;5.72;;;3.03;;
11082;SDS011;5595;50.186;8.468;2022-08-19T14:35:14;5.13;;;2.92;;
11082;SDS011;5595;50.186;8.468;2022-08-19T14:37:43;4.05;;;2.80;;
11082;SDS011;5595;50.186;8.468;2022-08-19T14:40:12;2.88;;;2.50;;
11082;SDS011;5595;50.186;8.468;2022-08-19T14:42:39;4.03;;;2.47;;
11082;SDS011;5595;50.186;8.468;2022-08-19T14:45:09;4.05;;;2.10;;
11082;SDS011;5595;50.186;8.468;2022-08-19T14:47:37;3.58;;;2.50;;
11082;SDS011;5595;50.186;8.468;2022-08-19T14:50:05;3.95;;;2.38;;
11082;SDS011;5595;50.186;8.468;2022-08-19T14:52:34;3.78;;;2.70;;
11082;SDS011;5595;50.186;8.468;2022-08-19T14:55:01;4.05;;;2.80;;
11082;SDS011;5595;50.186;8.468;2022-08-19T14:57:28;4.43;;;3.30;;
11082;SDS011;5595;50.186;8.468;2022-08-19T14:59:55;6.70;;;3.03;;
11082;SDS011;5595;50.186;8.468;2022-08-19T15:02:24;3.60;;;2.85;;